createdAt,value
2018-04-09T00:03:49.227Z,56.83
2018-04-09T00:08:50.542Z,57.24
2018-04-09T00:13:51.863Z,57.70
2018-04-09T00:18:53.174Z,57.68
2018-04-09T00:23:54.467Z,57.96
2018-04-09T00:28:55.762Z,58.65
2018-04-09T00:33:57.081Z,58.74
2018-04-09T00:38:58.367Z,59.23
2018-04-09T00:43:59.663Z,60.31
2018-04-09T00:49:00.988Z,61.57
2018-04-09T00:54:02.290Z,61.51
2018-04-09T00:59:03.643Z,60.92
2018-04-09T01:04:05.699Z,61.19
2018-04-09T01:09:07.035Z,61.24
2018-04-09T01:14:08.338Z,61.20
2018-04-09T01:19:09.668Z,61.63
2018-04-09T01:24:10.963Z,61.81
2018-04-09T01:29:12.288Z,61.65
2018-04-09T01:34:13.631Z,61.61
2018-04-09T01:39:14.927Z,62.11
2018-04-09T01:44:16.243Z,63.13
2018-04-09T01:49:17.571Z,64.69
2018-04-09T01:54:18.886Z,64.98
2018-04-09T01:59:20.190Z,64.34
2018-04-09T02:04:21.494Z,64.05
2018-04-09T02:09:22.806Z,63.96
2018-04-09T02:14:24.847Z,63.78
2018-04-09T02:19:26.156Z,63.99
2018-04-09T02:24:27.487Z,64.20
2018-04-09T02:29:28.808Z,63.85
2018-04-09T02:34:30.135Z,64.11
2018-04-09T02:39:31.447Z,65.36
2018-04-09T02:44:32.782Z,65.03
2018-04-09T02:49:34.080Z,64.99
2018-04-09T02:54:35.424Z,65.36
2018-04-09T02:59:36.727Z,65.21
2018-04-09T03:04:38.792Z,64.98
2018-04-09T03:09:40.102Z,66.07
2018-04-09T03:14:41.426Z,66.35
2018-04-09T03:19:43.205Z,65.19
2018-04-09T03:24:44.607Z,65.22
2018-04-09T03:29:46.658Z,65.92
2018-04-09T03:34:47.947Z,65.84
2018-04-09T03:39:49.235Z,66.20
2018-04-09T03:44:50.542Z,66.39
2018-04-09T03:49:51.863Z,67.07
2018-04-09T03:54:53.916Z,67.01
2018-04-09T03:59:55.279Z,66.91
2018-04-09T04:04:56.567Z,66.29
2018-04-09T04:09:57.883Z,66.51
2018-04-09T04:14:59.171Z,66.05
2018-04-09T04:20:19.061Z,66.17
2018-04-09T04:25:20.379Z,67.05
2018-04-09T04:30:21.719Z,66.66
2018-04-09T04:35:23.018Z,66.86
2018-04-09T04:40:25.059Z,66.43
2018-04-09T04:45:26.384Z,66.01
2018-04-09T04:50:27.706Z,66.38
2018-04-09T04:55:29.752Z,66.56
2018-04-09T05:00:31.131Z,67.05
2018-04-09T05:05:32.534Z,67.22
2018-04-09T05:10:34.015Z,66.71
2018-04-09T05:15:35.319Z,67.02
2018-04-09T05:20:36.620Z,67.68
2018-04-09T05:25:37.927Z,68.17
2018-04-09T05:30:39.270Z,69.30
2018-04-09T05:35:41.414Z,68.47
2018-04-09T05:40:43.556Z,68.13
2018-04-09T05:45:45.591Z,67.79
2018-04-09T05:50:46.875Z,68.07
2018-04-09T05:55:48.179Z,68.39
2018-04-09T06:00:49.490Z,68.02
2018-04-09T06:05:50.830Z,68.33
2018-04-09T06:10:52.145Z,68.19
2018-04-09T06:15:53.448Z,67.41
2018-04-09T06:20:54.780Z,66.63
2018-04-09T06:25:56.824Z,65.49
2018-04-09T06:30:58.184Z,64.79
2018-04-09T06:36:00.231Z,63.97
2018-04-09T06:41:01.584Z,63.30
2018-04-09T06:46:03.663Z,62.72
2018-04-09T06:51:04.984Z,62.22
2018-04-09T06:56:06.310Z,61.70
2018-04-09T07:01:07.811Z,60.93
2018-04-09T07:06:09.131Z,60.21
2018-04-09T07:11:10.434Z,59.77
2018-04-09T07:16:12.523Z,59.53
2018-04-09T07:21:13.828Z,59.48
2018-04-09T07:26:30.815Z,59.20
2018-04-09T07:31:32.163Z,58.79
2018-04-09T07:36:33.476Z,58.60
2018-04-09T07:41:35.524Z,58.33
2018-04-09T07:46:36.847Z,57.64
2018-04-09T07:51:38.169Z,57.56
2018-04-09T07:56:39.475Z,57.54
2018-04-09T08:01:40.774Z,55.78
2018-04-09T08:06:42.109Z,53.34
2018-04-09T08:11:44.159Z,54.03
2018-04-09T08:16:45.475Z,54.77
2018-04-09T08:21:46.797Z,55.12
2018-04-09T08:26:48.844Z,54.75
2018-04-09T08:31:50.158Z,53.10
2018-04-09T08:36:51.476Z,53.89
2018-04-09T08:41:53.559Z,52.72
2018-04-09T08:46:54.879Z,53.72
2018-04-09T08:51:56.902Z,52.01
2018-04-09T08:56:58.240Z,50.79
2018-04-09T09:01:59.564Z,50.47
2018-04-09T09:07:01.678Z,50.84
2018-04-09T09:12:03.719Z,51.41
2018-04-09T09:17:05.043Z,49.58
2018-04-09T09:22:06.368Z,49.16
2018-04-09T09:27:07.701Z,48.67
2018-04-09T09:32:09.027Z,49.21
2018-04-09T09:37:10.319Z,48.64
2018-04-09T09:42:12.387Z,49.06
2018-04-09T09:47:13.683Z,48.48
2018-04-09T09:52:14.991Z,47.97
2018-04-09T09:57:16.319Z,47.70
2018-04-09T10:02:17.636Z,47.91
2018-04-09T10:07:18.962Z,47.61
2018-04-09T10:12:20.275Z,47.26
2018-04-09T10:17:22.322Z,46.75
2018-04-09T10:22:23.635Z,46.51
2018-04-09T10:27:24.980Z,46.39
2018-04-09T10:32:26.367Z,46.11
2018-04-09T10:37:27.756Z,46.14
2018-04-09T10:42:29.075Z,46.32
2018-04-09T10:47:30.392Z,46.03
2018-04-09T10:52:31.726Z,46.15
2018-04-09T10:57:33.057Z,45.99
2018-04-09T11:02:34.367Z,45.77
2018-04-09T11:07:35.666Z,44.35
2018-04-09T11:12:38.083Z,41.92
2018-04-09T11:17:40.152Z,41.36
2018-04-09T11:22:41.492Z,40.99
2018-04-09T11:27:42.840Z,41.24
2018-04-09T11:32:44.863Z,42.60
2018-04-09T11:37:46.193Z,42.32
2018-04-09T11:42:47.577Z,42.57
2018-04-09T11:47:48.941Z,42.59
2018-04-09T11:52:50.249Z,42.27
2018-04-09T12:02:53.149Z,41.15
2018-04-09T12:07:54.541Z,41.12
2018-04-09T12:12:55.857Z,40.69
2018-04-09T12:17:57.160Z,40.33
2018-04-09T12:22:58.462Z,41.24
2018-04-09T12:27:59.753Z,40.50
2018-04-09T12:33:01.068Z,41.52
2018-04-09T12:38:03.182Z,41.28
2018-04-09T12:43:04.507Z,41.64
2018-04-09T12:48:05.850Z,42.24
2018-04-09T12:53:07.904Z,41.87
2018-04-09T12:58:09.236Z,40.57
2018-04-09T13:03:11.285Z,40.35
2018-04-09T13:08:12.598Z,40.44
2018-04-09T13:13:13.901Z,40.10
2018-04-09T13:18:15.214Z,39.91
2018-04-09T13:23:17.290Z,38.79
2018-04-09T13:28:18.656Z,38.00
2018-04-09T13:33:20.012Z,37.32
2018-04-09T13:38:21.365Z,33.66
2018-04-09T13:43:22.698Z,33.43
2018-04-09T13:48:24.080Z,32.70
2018-04-09T13:53:25.419Z,34.49
2018-04-09T13:58:26.741Z,35.19
2018-04-09T14:03:28.057Z,35.78
2018-04-09T14:08:29.368Z,36.30
2018-04-09T14:13:30.714Z,36.54
2018-04-09T14:18:32.765Z,35.57
2018-04-09T14:23:34.094Z,36.05
2018-04-09T14:28:35.394Z,36.67
2018-04-09T14:33:37.461Z,35.79
2018-04-09T14:38:38.774Z,35.81
2018-04-09T14:43:40.118Z,35.39
2018-04-09T14:48:41.476Z,35.34
2018-04-09T14:53:42.790Z,35.04
2018-04-09T14:58:44.093Z,34.52
2018-04-09T15:03:45.421Z,33.15
2018-04-09T15:08:46.729Z,33.25
2018-04-09T15:13:48.782Z,33.04
2018-04-09T15:18:50.180Z,32.64
2018-04-09T15:23:51.529Z,33.04
2018-04-09T15:28:54.672Z,33.52
2018-04-09T15:33:56.125Z,33.26
2018-04-09T15:38:57.553Z,33.47
2018-04-09T15:43:58.879Z,33.65
2018-04-09T15:49:00.213Z,33.77
2018-04-09T15:54:02.289Z,33.69
2018-04-09T15:59:03.633Z,33.68
2018-04-09T16:04:04.953Z,33.71
2018-04-09T16:09:06.284Z,33.55
2018-04-09T16:14:08.332Z,34.13
2018-04-09T16:19:09.638Z,34.88
2018-04-09T16:24:10.966Z,36.82
2018-04-09T16:29:13.083Z,38.52
2018-04-09T16:34:17.626Z,39.32
2018-04-09T16:39:19.091Z,40.23
2018-04-09T16:44:20.509Z,41.19
2018-04-09T16:49:21.909Z,41.82
2018-04-09T16:54:24.022Z,41.69
2018-04-09T16:59:26.118Z,41.44
2018-04-09T17:04:27.465Z,40.25
2018-04-09T17:09:28.790Z,40.51
2018-04-09T17:14:30.169Z,40.70
2018-04-09T17:19:31.449Z,41.47
2018-04-09T17:24:32.763Z,41.84
2018-04-09T17:29:34.110Z,41.80
2018-04-09T17:34:35.424Z,41.32
2018-04-09T17:39:36.761Z,41.24
2018-04-09T17:44:38.842Z,41.44
2018-04-09T17:49:41.071Z,41.87
2018-04-09T17:54:43.169Z,41.24
2018-04-09T17:59:45.266Z,41.21
2018-04-09T18:04:46.598Z,42.06
2018-04-09T18:09:47.936Z,42.29
2018-04-09T18:14:49.272Z,42.77
2018-04-09T18:19:50.577Z,43.35
2018-04-09T18:24:51.946Z,43.32
2018-04-09T18:29:53.257Z,43.65
2018-04-09T18:34:54.557Z,43.45
2018-04-09T18:39:55.898Z,43.13
2018-04-09T18:44:57.984Z,42.48
2018-04-09T18:49:59.295Z,42.43
2018-04-09T18:55:01.350Z,42.44
2018-04-09T19:00:02.819Z,42.11
2018-04-09T19:05:04.411Z,42.40
2018-04-09T19:10:06.580Z,42.26
2018-04-09T19:15:08.841Z,42.13
2018-04-09T19:20:10.433Z,43.07
2018-04-09T19:25:11.758Z,42.56
2018-04-09T19:30:13.106Z,42.56
2018-04-09T19:35:14.421Z,43.62
2018-04-09T19:40:21.925Z,43.95
2018-04-09T19:45:23.264Z,44.43
2018-04-09T19:50:24.601Z,44.43
2018-04-09T19:55:25.950Z,44.49
2018-04-09T20:00:27.361Z,44.42
2018-04-09T20:05:29.421Z,44.46
2018-04-09T20:10:30.909Z,45.38
2018-04-09T20:15:32.260Z,45.16
2018-04-09T20:20:34.556Z,45.24
2018-04-09T20:25:35.886Z,45.70
2018-04-09T20:30:37.229Z,45.75
2018-04-09T20:35:38.536Z,46.02
2018-04-09T20:40:40.591Z,46.21
2018-04-09T20:45:41.898Z,45.81
2018-04-09T20:50:43.212Z,45.97
2018-04-09T20:55:44.534Z,46.83
2018-04-09T21:00:45.834Z,46.87
2018-04-09T21:05:47.127Z,47.18
2018-04-09T21:10:48.412Z,46.82
2018-04-09T21:15:49.817Z,47.45
2018-04-09T21:20:51.109Z,47.63
2018-04-09T21:25:52.427Z,48.00
2018-04-09T21:30:53.765Z,47.75
2018-04-09T21:35:55.070Z,48.03
2018-04-09T21:40:56.361Z,47.70
2018-04-09T21:45:57.668Z,47.39
2018-04-09T21:50:58.961Z,48.17
2018-04-09T21:56:00.265Z,48.31
2018-04-09T22:01:01.573Z,48.88
2018-04-09T22:06:02.925Z,48.47
2018-04-09T22:11:04.249Z,48.88
2018-04-09T22:16:06.293Z,49.05
2018-04-09T22:21:07.601Z,49.45
2018-04-09T22:26:08.896Z,49.97
2018-04-09T22:31:10.217Z,50.16
2018-04-09T22:36:12.282Z,50.93
2018-04-09T22:41:13.594Z,50.65
2018-04-09T22:46:14.881Z,50.67
2018-04-09T22:51:16.181Z,50.50
2018-04-09T22:56:18.229Z,51.47
2018-04-09T23:01:19.527Z,51.81
2018-04-09T23:06:20.832Z,52.07
2018-04-09T23:11:22.126Z,52.30
2018-04-09T23:16:23.442Z,52.26
2018-04-09T23:21:24.780Z,52.70
2018-04-09T23:26:26.070Z,52.93
2018-04-09T23:31:27.403Z,52.79
2018-04-09T23:36:28.710Z,53.25
2018-04-09T23:41:30.747Z,52.98
2018-04-09T23:46:32.042Z,53.84
2018-04-09T23:51:33.354Z,53.68
2018-04-09T23:56:34.662Z,53.66
